Time;durP1;ratioP1;P1;durP2;ratioP2;P2;SDS_P1;SDS_P2;PMS_P1;PMS_P2;Temp;Humidity;BMP_temperature;BMP_pressure;BME280_temperature;BME280_humidity;BME280_pressure;Samples;Min_cycle;Max_cycle;Signal;HPM_P1;HPM_P2
2021/10/25 00:00:36;;;;;;;9.03;4.00;;;;;;;0.01;100.00;101573.34;5039787;28;20203;-71
2021/10/25 00:03:02;;;;;;;10.80;4.30;;;;;;;0.07;100.00;101571.00;5037548;28;20224;-71
2021/10/25 00:05:31;;;;;;;11.53;5.33;;;;;;;0.11;100.00;101572.84;5039584;28;20665;-70
2021/10/25 00:07:58;;;;;;;8.83;4.50;;;;;;;0.12;100.00;101569.47;5055015;28;20221;-71
2021/10/25 00:10:24;;;;;;;6.50;4.27;;;;;;;0.10;100.00;101567.66;5036804;28;20220;-70
2021/10/25 00:12:51;;;;;;;7.37;4.10;;;;;;;0.03;100.00;101560.59;5044839;28;20257;-71
2021/10/25 00:15:17;;;;;;;10.83;4.70;;;;;;;0.04;100.00;101559.78;5042278;28;20207;-71
2021/10/25 00:17:46;;;;;;;10.07;3.80;;;;;;;0.14;100.00;101560.13;5033775;28;20203;-70
2021/10/25 00:20:13;;;;;;;15.93;4.47;;;;;;;-0.10;100.00;101556.78;5037355;28;20674;-71
2021/10/25 00:22:40;;;;;;;11.90;4.17;;;;;;;0.11;100.00;101562.56;5037809;28;20290;-71
2021/10/25 00:25:07;;;;;;;6.73;4.10;;;;;;;0.05;100.00;101556.38;5047605;28;20210;-71
2021/10/25 00:27:35;;;;;;;7.13;3.80;;;;;;;0.20;100.00;101561.13;5044445;28;20204;-71
2021/10/25 00:30:01;;;;;;;8.53;4.13;;;;;;;0.20;100.00;101562.00;5039881;28;20199;-70
2021/10/25 00:32:28;;;;;;;7.47;4.10;;;;;;;-0.16;100.00;101557.41;5032444;28;20231;-70
2021/10/25 00:34:57;;;;;;;10.97;4.23;;;;;;;-0.10;100.00;101546.53;5043230;28;20195;-71
2021/10/25 00:37:24;;;;;;;8.27;4.43;;;;;;;-0.14;100.00;101549.78;5045099;28;20204;-71
2021/10/25 00:39:50;;;;;;;6.27;3.97;;;;;;;-0.13;100.00;101552.41;5044950;28;20208;-71
2021/10/25 00:42:17;;;;;;;10.07;4.27;;;;;;;-0.13;100.00;101551.53;5043892;28;20247;-71
2021/10/25 00:44:43;;;;;;;7.40;3.77;;;;;;;-0.17;100.00;101553.13;5041267;28;20393;-71
2021/10/25 00:47:10;;;;;;;4.90;3.70;;;;;;;-0.24;100.00;101552.06;5043378;28;20565;-71
2021/10/25 00:49:36;;;;;;;6.40;4.30;;;;;;;-0.34;100.00;101556.81;5040232;28;20204;-71
2021/10/25 00:52:05;;;;;;;10.73;4.90;;;;;;;-0.30;100.00;101545.84;5031166;28;20558;-72
2021/10/25 00:54:35;;;;;;;6.47;4.13;;;;;;;-0.22;100.00;101544.41;5045312;28;20195;-71
2021/10/25 00:57:03;;;;;;;7.83;3.87;;;;;;;-0.18;100.00;101542.81;5033515;28;20199;-72
2021/10/25 00:59:30;;;;;;;9.67;4.10;;;;;;;-0.27;100.00;101541.69;5043919;28;20707;-71
2021/10/25 01:01:57;;;;;;;9.67;4.63;;;;;;;-0.27;100.00;101538.25;5036259;28;20660;-71
2021/10/25 01:04:23;;;;;;;6.23;4.13;;;;;;;-0.24;100.00;101539.25;5040009;28;20709;-71
2021/10/25 01:06:50;;;;;;;8.27;4.30;;;;;;;-0.26;100.00;101530.63;5032207;28;20211;-71
2021/10/25 01:09:19;;;;;;;6.50;3.93;;;;;;;-0.28;100.00;101533.94;5037550;28;20712;-71
2021/10/25 01:11:45;;;;;;;10.07;3.90;;;;;;;-0.27;100.00;101528.88;5046520;28;20228;-71
2021/10/25 01:14:12;;;;;;;10.47;3.70;;;;;;;-0.26;100.00;101529.78;5043159;28;20212;-71
2021/10/25 01:16:38;;;;;;;6.83;3.80;;;;;;;-0.16;100.00;101529.22;5039683;28;20207;-70
2021/10/25 01:19:05;;;;;;;6.60;3.73;;;;;;;-0.18;100.00;101522.31;5048011;28;20700;-71
2021/10/25 01:21:33;;;;;;;9.27;4.37;;;;;;;-0.22;100.00;101521.34;5031432;28;20227;-71
2021/10/25 01:24:00;;;;;;;9.00;4.13;;;;;;;-0.20;100.00;101514.56;5040809;28;20672;-71
2021/10/25 01:26:27;;;;;;;4.73;3.53;;;;;;;-0.24;100.00;101517.88;5045960;28;20265;-71
2021/10/25 01:28:53;;;;;;;7.90;4.67;;;;;;;-0.24;100.00;101513.59;5043811;28;20200;-71
2021/10/25 01:31:22;;;;;;;10.33;4.83;;;;;;;-0.24;100.00;101511.03;5049561;28;20257;-71
2021/10/25 01:33:51;;;;;;;6.63;4.33;;;;;;;-0.31;100.00;101511.66;5039853;28;20204;-71
2021/10/25 01:36:19;;;;;;;6.37;3.87;;;;;;;-0.31;100.00;101506.53;5042214;28;20214;-72
2021/10/25 01:38:47;;;;;;;11.57;4.93;;;;;;;-0.42;100.00;101506.19;5044592;28;20229;-71
2021/10/25 01:41:15;;;;;;;7.67;4.27;;;;;;;-0.49;100.00;101500.81;5034505;28;20269;-71
2021/10/25 01:43:42;;;;;;;8.90;4.20;;;;;;;-0.32;100.00;101493.66;5054905;28;20678;-70
2021/10/25 01:46:10;;;;;;;6.97;4.13;;;;;;;-0.31;100.00;101498.84;5044582;28;20199;-71
2021/10/25 01:48:37;;;;;;;7.40;4.43;;;;;;;-0.48;100.00;101505.13;5039342;28;20648;-71
2021/10/25 01:51:04;;;;;;;6.53;4.57;;;;;;;-0.55;100.00;101509.16;5036462;28;20848;-71
2021/10/25 01:53:34;;;;;;;10.57;4.80;;;;;;;-0.45;100.00;101502.66;5039207;28;20283;-71
2021/10/25 01:56:03;;;;;;;7.87;4.23;;;;;;;-0.40;100.00;101496.00;5039411;28;20204;-71
2021/10/25 01:58:33;;;;;;;8.67;4.13;;;;;;;-0.71;100.00;101499.22;5046630;28;20751;-71
2021/10/25 02:01:04;;;;;;;8.13;4.30;;;;;;;-0.62;100.00;101499.53;5037253;28;20223;-70
2021/10/25 02:03:32;;;;;;;7.17;4.57;;;;;;;-0.80;100.00;101500.66;5039252;28;20212;-71
2021/10/25 02:06:03;;;;;;;6.03;4.40;;;;;;;-0.74;100.00;101504.25;5041867;28;20196;-71
2021/10/25 02:08:31;;;;;;;8.37;4.67;;;;;;;-0.76;100.00;101499.06;5047797;28;20208;-71
2021/10/25 02:11:00;;;;;;;11.67;4.57;;;;;;;-0.77;100.00;101500.75;5041907;28;20921;-70
2021/10/25 02:13:29;;;;;;;7.53;4.03;;;;;;;-1.02;100.00;101495.59;5033494;28;20214;-71
2021/10/25 02:16:01;;;;;;;5.87;4.07;;;;;;;-0.98;100.00;101494.91;5061880;28;20657;-71
2021/10/25 02:18:28;;;;;;;8.17;4.37;;;;;;;-0.98;100.00;101492.34;5048645;28;20412;-71
2021/10/25 02:20:54;;;;;;;5.43;3.83;;;;;;;-0.85;100.00;101486.81;5049218;28;20272;-71
2021/10/25 02:23:24;;;;;;;7.47;4.23;;;;;;;-0.96;100.00;101483.03;5049800;28;20212;-71
2021/10/25 02:25:55;;;;;;;7.67;4.53;;;;;;;-0.88;100.00;101476.50;5044513;28;20208;-71
2021/10/25 02:28:23;;;;;;;5.57;4.17;;;;;;;-0.84;100.00;101474.91;5047468;28;20223;-71
2021/10/25 02:30:55;;;;;;;7.97;4.00;;;;;;;-0.94;100.00;101471.13;5041326;28;20212;-71
2021/10/25 02:33:23;;;;;;;5.57;3.80;;;;;;;-0.80;100.00;101477.59;5040133;28;20200;-71
2021/10/25 02:35:50;;;;;;;8.07;4.80;;;;;;;-0.75;100.00;101467.53;5050656;28;20230;-71
2021/10/25 02:38:20;;;;;;;5.93;3.90;;;;;;;-0.80;100.00;101472.47;5047526;28;20188;-71
2021/10/25 02:40:54;;;;;;;8.73;4.23;;;;;;;-0.73;100.00;101465.88;5044385;28;20223;-71
2021/10/25 02:43:21;;;;;;;6.63;3.87;;;;;;;-0.77;100.00;101467.47;5052586;28;20470;-72
2021/10/25 02:45:47;;;;;;;8.50;4.00;;;;;;;-0.71;100.00;101464.22;5040506;28;20205;-71
2021/10/25 02:48:15;;;;;;;6.27;3.90;;;;;;;-0.93;100.00;101470.34;5045951;28;20469;-70
2021/10/25 02:50:43;;;;;;;6.20;3.87;;;;;;;-0.87;100.00;101469.66;5042563;28;20472;-71
2021/10/25 02:53:09;;;;;;;6.83;4.13;;;;;;;-0.94;100.00;101473.69;5042620;28;20456;-71
2021/10/25 02:55:36;;;;;;;8.07;3.83;;;;;;;-0.83;100.00;101471.50;5049841;28;20469;-71
2021/10/25 02:58:03;;;;;;;7.93;4.33;;;;;;;-0.89;100.00;101469.63;5036946;28;20465;-70
2021/10/25 03:00:30;;;;;;;9.43;4.17;;;;;;;-1.05;100.00;101470.78;5046586;28;20459;-71
2021/10/25 03:02:59;;;;;;;8.37;3.53;;;;;;;-1.02;100.00;101463.22;5037097;28;20220;-71
2021/10/25 03:05:27;;;;;;;6.67;3.90;;;;;;;-1.01;100.00;101461.50;5053973;28;20207;-71
2021/10/25 03:07:53;;;;;;;5.60;3.67;;;;;;;-1.12;100.00;101463.69;5044272;28;21041;-70
2021/10/25 03:10:20;;;;;;;10.77;4.10;;;;;;;-1.03;100.00;101458.91;5046126;28;20483;-71
2021/10/25 03:12:47;;;;;;;11.17;4.33;;;;;;;-1.01;100.00;101456.38;5040264;28;20472;-71
2021/10/25 03:15:14;;;;;;;7.63;4.00;;;;;;;-1.08;100.00;101464.69;5044582;28;20670;-71
2021/10/25 03:17:41;;;;;;;7.27;4.73;;;;;;;-1.21;100.00;101459.13;5044989;28;20877;-71
2021/10/25 03:20:17;;;;;;;7.17;4.20;;;;;;;-1.21;100.00;101458.28;5042445;28;20450;-70
2021/10/25 03:22:47;;;;;;;6.53;3.70;;;;;;;-1.09;100.00;101463.81;5047275;28;20477;-70
2021/10/25 03:25:16;;;;;;;9.17;4.13;;;;;;;-1.11;100.00;101465.44;5040286;28;20457;-71
2021/10/25 03:27:44;;;;;;;10.90;3.97;;;;;;;-1.24;100.00;101459.00;5037358;28;20473;-71
2021/10/25 03:30:12;;;;;;;10.03;4.47;;;;;;;-1.20;100.00;101460.84;5045288;28;20525;-71
2021/10/25 03:32:42;;;;;;;8.30;4.03;;;;;;;-1.21;100.00;101453.16;5044636;28;20746;-72
2021/10/25 03:35:27;;;;;;;7.10;4.20;;;;;;;-1.49;100.00;101453.84;5048825;28;20442;-71
2021/10/25 03:37:57;;;;;;;4.57;3.33;;;;;;;-1.30;100.00;101460.47;5041776;28;20453;-71
2021/10/25 03:40:24;;;;;;;8.03;4.33;;;;;;;-1.24;100.00;101453.03;5046928;28;20540;-71
2021/10/25 03:42:53;;;;;;;5.63;3.73;;;;;;;-1.20;100.00;101460.00;5034071;28;20996;-71
2021/10/25 03:45:27;;;;;;;7.13;4.37;;;;;;;-1.20;100.00;101452.31;5037055;28;20454;-71
2021/10/25 03:47:58;;;;;;;9.87;4.37;;;;;;;-1.24;100.00;101441.09;5052561;28;20472;-71
2021/10/25 03:50:27;;;;;;;5.93;3.93;;;;;;;-1.40;100.00;101449.91;5045323;28;20911;-71
2021/10/25 03:53:09;;;;;;;6.87;4.03;;;;;;;-1.33;100.00;101443.34;5046950;28;20905;-71
2021/10/25 03:55:44;;;;;;;7.43;3.97;;;;;;;-1.48;100.00;101448.75;5035570;28;20449;-71
2021/10/25 03:58:38;;;;;;;6.63;4.10;;;;;;;-1.43;100.00;101444.69;5051797;28;20466;-71
2021/10/25 04:01:32;;;;;;;8.50;4.37;;;;;;;-1.48;100.00;101441.09;5042296;28;20527;-73
2021/10/25 04:29:20;;;;;;;7.30;4.27;;;;;;;-1.53;100.00;101434.94;5026031;28;20479;-72
2021/10/25 04:31:47;;;;;;;10.67;4.83;;;;;;;-1.54;100.00;101431.50;5030456;28;20491;-71
2021/10/25 04:34:14;;;;;;;6.53;4.07;;;;;;;-1.70;100.00;101428.38;5047599;28;20461;-72
2021/10/25 04:36:49;;;;;;;11.80;4.97;;;;;;;-1.66;100.00;101422.53;5044800;28;20465;-72
2021/10/25 04:39:36;;;;;;;7.10;3.97;;;;;;;-1.79;100.00;101426.34;5038744;28;20467;-72
2021/10/25 04:42:09;;;;;;;11.57;5.30;;;;;;;-1.73;100.00;101429.09;5045953;28;20480;-72
2021/10/25 04:44:36;;;;;;;13.30;5.80;;;;;;;-1.58;100.00;101416.88;5039829;28;20471;-72
2021/10/25 04:47:02;;;;;;;9.13;5.47;;;;;;;-1.76;100.00;101411.09;5052598;28;20500;-72
2021/10/25 04:49:29;;;;;;;14.67;7.00;;;;;;;-1.79;100.00;101424.66;5042744;28;21014;-71
2021/10/25 04:52:18;;;;;;;16.50;7.07;;;;;;;-1.70;100.00;101416.44;5037306;28;20482;-72
2021/10/25 04:54:46;;;;;;;18.07;7.93;;;;;;;-1.73;100.00;101417.19;5043823;28;20457;-72
2021/10/25 04:57:13;;;;;;;15.17;7.90;;;;;;;-1.78;100.00;101420.38;5038087;28;20559;-72
2021/10/25 04:59:41;;;;;;;22.43;10.43;;;;;;;-1.73;100.00;101421.44;5040577;28;20469;-71
2021/10/25 05:02:08;;;;;;;21.97;10.37;;;;;;;-1.75;100.00;101413.69;5036788;28;20571;-70
2021/10/25 05:04:35;;;;;;;29.93;13.67;;;;;;;-1.72;100.00;101411.28;5032516;28;20482;-71
2021/10/25 05:07:03;;;;;;;24.00;11.90;;;;;;;-1.64;100.00;101411.53;5038579;28;20456;-71
2021/10/25 05:09:30;;;;;;;29.47;12.70;;;;;;;-1.75;100.00;101398.38;5046834;28;20496;-71
2021/10/25 05:11:57;;;;;;;27.17;12.10;;;;;;;-1.85;100.00;101410.75;5033336;28;20480;-72
2021/10/25 05:14:26;;;;;;;23.57;11.57;;;;;;;-1.75;100.00;101406.03;5041087;28;20520;-71
2021/10/25 05:16:55;;;;;;;29.40;12.50;;;;;;;-1.72;100.00;101403.59;5055011;28;20460;-72
2021/10/25 05:19:23;;;;;;;28.07;12.93;;;;;;;-1.77;100.00;101401.69;5029637;28;20457;-72
2021/10/25 05:21:59;;;;;;;26.37;12.33;;;;;;;-1.79;100.00;101403.31;5039320;28;20472;-71
2021/10/25 05:24:25;;;;;;;30.10;13.03;;;;;;;-1.69;100.00;101399.41;5038202;28;20550;-72
2021/10/25 05:26:54;;;;;;;25.93;12.13;;;;;;;-1.80;100.00;101396.47;5042632;28;20481;-70
2021/10/25 05:29:20;;;;;;;27.83;13.83;;;;;;;-1.82;100.00;101398.09;5046168;28;20487;-72
2021/10/25 05:31:50;;;;;;;25.80;13.40;;;;;;;-1.84;100.00;101398.03;5043005;28;20506;-71
2021/10/25 05:34:17;;;;;;;37.13;14.50;;;;;;;-1.74;100.00;101400.13;5038481;28;20464;-72
2021/10/25 05:36:44;;;;;;;28.10;13.67;;;;;;;-1.84;100.00;101392.06;5035967;28;20459;-72
2021/10/25 05:39:11;;;;;;;32.93;14.57;;;;;;;-1.69;100.00;101396.84;5040591;28;20457;-72
2021/10/25 05:41:38;;;;;;;36.13;14.37;;;;;;;-1.67;100.00;101403.78;5038074;28;20499;-71
2021/10/25 05:44:06;;;;;;;33.10;13.10;;;;;;;-1.62;100.00;101397.16;5042398;28;20522;-71
2021/10/25 05:46:33;;;;;;;24.17;12.03;;;;;;;-1.72;100.00;101400.19;5031004;28;20467;-72
2021/10/25 05:49:01;;;;;;;27.30;13.43;;;;;;;-1.73;100.00;101396.72;5046269;28;20459;-71
2021/10/25 05:51:29;;;;;;;26.60;13.03;;;;;;;-1.65;100.00;101403.81;5043624;28;20468;-72
2021/10/25 05:53:59;;;;;;;24.37;12.57;;;;;;;-1.83;100.00;101396.34;5034875;28;20456;-72
2021/10/25 05:56:27;;;;;;;28.93;12.70;;;;;;;-1.72;100.00;101398.47;5056467;28;20448;-71
2021/10/25 05:58:53;;;;;;;25.47;12.90;;;;;;;-1.73;100.00;101395.88;5042955;28;20457;-71
2021/10/25 06:01:24;;;;;;;26.33;12.60;;;;;;;-1.85;100.00;101398.84;5043762;28;20522;-72
2021/10/25 06:04:03;;;;;;;29.60;12.03;;;;;;;-1.82;100.00;101398.97;5044938;28;20529;-71
2021/10/25 06:06:31;;;;;;;29.47;12.30;;;;;;;-1.67;100.00;101398.66;5034053;28;20826;-71
2021/10/25 06:08:57;;;;;;;22.57;11.33;;;;;;;-1.81;100.00;101399.81;5034037;28;20452;-72
2021/10/25 06:11:25;;;;;;;26.00;12.27;;;;;;;-1.63;100.00;101410.72;5038362;28;20471;-71
2021/10/25 06:13:54;;;;;;;24.83;11.33;;;;;;;-1.57;100.00;101415.19;5058029;28;20521;-71
2021/10/25 06:16:25;;;;;;;25.60;11.90;;;;;;;-1.59;100.00;101411.72;5040525;28;20546;-72
2021/10/25 06:18:59;;;;;;;25.07;11.17;;;;;;;-1.64;100.00;101413.22;5044736;28;20453;-72
2021/10/25 06:21:31;;;;;;;24.40;11.13;;;;;;;-1.59;100.00;101415.13;5029997;28;20476;-72
2021/10/25 06:23:59;;;;;;;22.53;11.27;;;;;;;-1.54;100.00;101405.94;5031649;28;20480;-72
2021/10/25 06:26:41;;;;;;;23.70;9.90;;;;;;;-1.32;100.00;101409.25;5040625;28;20513;-71
2021/10/25 06:29:11;;;;;;;18.60;9.40;;;;;;;-1.30;100.00;101411.88;5044282;28;20549;-72
2021/10/25 06:31:38;;;;;;;14.37;7.63;;;;;;;-1.23;100.00;101406.13;5036509;28;20475;-72
2021/10/25 06:34:20;;;;;;;14.13;7.83;;;;;;;-1.20;100.00;101411.38;5047265;28;20465;-72
2021/10/25 06:37:07;;;;;;;10.70;6.17;;;;;;;-1.01;100.00;101411.16;5036908;28;20553;-72
2021/10/25 06:39:51;;;;;;;13.67;6.57;;;;;;;-0.83;100.00;101413.47;5032745;28;20460;-71
2021/10/25 06:42:18;;;;;;;15.30;6.03;;;;;;;-0.70;100.00;101413.88;5038248;28;20988;-71
2021/10/25 06:44:57;;;;;;;15.03;6.17;;;;;;;-0.48;100.00;101415.44;5031453;28;20473;-71
2021/10/25 06:47:28;;;;;;;21.53;6.73;;;;;;;-0.32;100.00;101409.97;5043493;28;20681;-72
2021/10/25 06:49:56;;;;;;;11.40;5.97;;;;;;;-0.20;100.00;101418.03;5042826;28;20817;-72
2021/10/25 06:52:25;;;;;;;13.20;6.47;;;;;;;-0.03;100.00;101423.69;5049595;28;20473;-70
2021/10/25 06:54:52;;;;;;;15.03;7.70;;;;;;;0.17;100.00;101426.81;5044011;28;20203;-72
2021/10/25 06:57:20;;;;;;;14.10;7.13;;;;;;;0.28;100.00;101414.31;5036062;28;20192;-70
2021/10/25 06:59:50;;;;;;;12.13;6.43;;;;;;;0.54;100.00;101424.44;5035828;28;20257;-71
2021/10/25 07:02:17;;;;;;;19.57;8.07;;;;;;;0.72;100.00;101419.81;5045107;28;20595;-71
2021/10/25 07:04:45;;;;;;;16.97;7.07;;;;;;;0.90;100.00;101418.56;5035980;28;20301;-70
2021/10/25 07:07:12;;;;;;;17.73;7.50;;;;;;;1.05;100.00;101411.25;5040609;28;20212;-72
2021/10/25 07:09:43;;;;;;;21.27;8.23;;;;;;;1.24;100.00;101415.16;5035900;28;20208;-71
2021/10/25 07:12:10;;;;;;;19.40;8.27;;;;;;;1.44;100.00;101413.06;5041985;28;20651;-71
2021/10/25 07:14:38;;;;;;;19.97;9.20;;;;;;;1.56;100.00;101416.75;5044961;28;20203;-72
2021/10/25 07:17:18;;;;;;;18.87;9.23;;;;;;;1.79;100.00;101409.56;5044734;28;20610;-72
2021/10/25 07:20:01;;;;;;;21.57;9.33;;;;;;;2.03;100.00;101407.53;5039229;28;20816;-72
2021/10/25 07:59:46;;;;;;;14.40;7.93;;;;;;;4.31;100.00;101413.03;5038742;28;20214;-71
2021/10/25 08:02:44;;;;;;;13.33;7.80;;;;;;;4.43;100.00;101425.25;5040262;28;20631;-72
2021/10/25 08:05:39;;;;;;;39.10;22.87;;;;;;;4.58;100.00;101421.97;5039013;28;20223;-72
2021/10/25 08:08:17;;;;;;;31.80;17.17;;;;;;;4.71;100.00;101416.09;5038327;28;20348;-73
2021/10/25 08:10:52;;;;;;;21.80;11.63;;;;;;;4.83;100.00;101410.19;5037793;28;20322;-72
2021/10/25 08:13:20;;;;;;;14.30;6.80;;;;;;;4.91;100.00;101419.75;5035713;28;20214;-72
2021/10/25 08:15:48;;;;;;;8.20;6.00;;;;;;;5.08;100.00;101409.59;5038955;28;20282;-72
2021/10/25 08:18:35;;;;;;;11.53;5.67;;;;;;;5.18;100.00;101407.06;5037614;28;20828;-72
2021/10/25 08:21:04;;;;;;;16.47;4.97;;;;;;;5.30;100.00;101415.78;5041522;28;20322;-72
2021/10/25 08:23:31;;;;;;;7.33;5.30;;;;;;;5.47;98.98;101415.03;5042009;28;20359;-72
2021/10/25 08:26:03;;;;;;;7.93;4.07;;;;;;;5.60;96.54;101419.47;5042696;28;20700;-71
2021/10/25 08:28:31;;;;;;;8.33;4.50;;;;;;;5.71;95.83;101423.84;5039773;28;20195;-73
2021/10/25 08:31:00;;;;;;;6.87;4.70;;;;;;;5.79;96.14;101422.19;5040156;28;20254;-71
2021/10/25 08:33:44;;;;;;;10.77;3.87;;;;;;;5.94;92.84;101426.56;5038903;28;20269;-71
2021/10/25 08:36:13;;;;;;;7.87;5.13;;;;;;;6.09;91.39;101431.88;5030454;28;20214;-71
2021/10/25 08:41:32;;;;;;;6.07;3.03;;;;;;;6.34;89.54;101426.81;5040009;28;20609;-72
2021/10/25 08:44:01;;;;;;;3.63;3.00;;;;;;;6.48;88.68;101422.53;5042555;28;20301;-72
2021/10/25 08:46:30;;;;;;;8.83;2.80;;;;;;;6.64;86.56;101429.50;5032721;28;20241;-71
2021/10/25 08:48:58;;;;;;;7.30;2.90;;;;;;;6.76;86.24;101423.50;5042416;28;20219;-72
2021/10/25 08:51:25;;;;;;;7.13;2.70;;;;;;;6.85;85.53;101432.16;5030860;28;21020;-72
2021/10/25 08:53:52;;;;;;;4.87;3.20;;;;;;;6.86;84.24;101426.97;5036205;28;20342;-71
2021/10/25 08:56:19;;;;;;;5.47;2.57;;;;;;;6.88;86.10;101430.44;5041559;28;20246;-71
2021/10/25 08:59:25;;;;;;;6.07;3.60;;;;;;;7.01;85.32;101433.91;5035970;28;20209;-72
2021/10/25 09:02:04;;;;;;;6.70;3.57;;;;;;;7.14;82.51;101440.84;5040742;28;20238;-72
2021/10/25 09:04:41;;;;;;;5.17;2.90;;;;;;;7.20;82.89;101433.06;5030754;28;20296;-73
2021/10/25 09:07:17;;;;;;;4.63;2.60;;;;;;;7.21;82.55;101426.13;5040198;28;20357;-72
2021/10/25 09:09:45;;;;;;;8.03;3.03;;;;;;;7.25;81.46;101430.47;5038570;28;20196;-71
2021/10/25 09:12:15;;;;;;;4.87;2.60;;;;;;;7.27;82.29;101418.38;5029553;28;20250;-73
2021/10/25 09:14:57;;;;;;;7.63;3.00;;;;;;;7.37;80.83;101432.22;5030132;28;20211;-72
2021/10/25 09:17:25;;;;;;;4.63;2.83;;;;;;;7.42;80.19;101434.78;5043200;28;20207;-73
2021/10/25 09:20:02;;;;;;;4.93;2.80;;;;;;;7.48;80.54;101430.47;5039946;28;20197;-73
2021/10/25 09:22:28;;;;;;;5.80;3.00;;;;;;;7.54;80.13;101416.63;5039240;28;20222;-73
2021/10/25 09:24:56;;;;;;;4.67;3.40;;;;;;;7.61;80.42;101414.91;5034996;28;20227;-71
2021/10/25 09:27:34;;;;;;;9.87;2.80;;;;;;;7.70;80.34;101418.31;5040209;28;20202;-72
2021/10/25 09:30:12;;;;;;;6.83;3.10;;;;;;;7.77;79.53;101412.28;5045603;28;20806;-72
2021/10/25 09:32:44;;;;;;;4.93;3.13;;;;;;;7.82;78.97;101414.00;5041443;28;20330;-72
2021/10/25 09:35:39;;;;;;;7.27;3.80;;;;;;;7.91;78.30;101420.00;5033191;28;20306;-73
2021/10/25 09:38:23;;;;;;;4.60;3.00;;;;;;;7.94;79.18;101411.38;5033266;28;20192;-71
2021/10/25 09:41:16;;;;;;;4.43;2.77;;;;;;;8.02;78.22;101414.81;5034430;28;20269;-72
2021/10/25 09:46:38;;;;;;;6.03;2.93;;;;;;;8.11;78.44;101409.59;5043534;28;20198;-73
2021/10/25 09:49:08;;;;;;;3.83;2.80;;;;;;;8.21;76.93;101406.94;5029831;28;20268;-72
2021/10/25 09:52:00;;;;;;;4.60;2.47;;;;;;;8.31;76.28;101413.84;5035480;28;20232;-72
2021/10/25 09:54:56;;;;;;;4.87;2.70;;;;;;;8.39;76.82;101416.41;5039095;28;20723;-72
2021/10/25 09:58:02;;;;;;;9.50;2.90;;;;;;;8.44;76.68;101412.97;5038708;28;20206;-71
2021/10/25 10:00:51;;;;;;;4.50;2.67;;;;;;;8.49;74.58;101407.72;5036263;28;20204;-72
2021/10/25 10:06:48;;;;;;;3.97;2.70;;;;;;;8.52;73.71;101413.75;5006852;28;20568;-73
2021/10/25 10:09:53;;;;;;;6.57;3.27;;;;;;;8.57;73.56;101412.91;5012474;28;20204;-72
2021/10/25 10:13:00;;;;;;;6.00;2.73;;;;;;;8.59;73.02;101409.41;5030611;28;20226;-72
2021/10/25 10:15:54;;;;;;;6.80;2.87;;;;;;;8.62;72.76;101395.50;5037011;28;21067;-72
2021/10/25 10:18:35;;;;;;;3.93;2.60;;;;;;;8.67;73.94;101407.63;5038350;28;20581;-72
2021/10/25 10:24:46;;;;;;;4.13;2.73;;;;;;;8.82;72.61;101395.41;5037389;28;20211;-73
2021/10/25 10:27:23;;;;;;;5.67;3.00;;;;;;;8.94;72.22;101397.06;5041389;28;20210;-72
2021/10/25 10:30:26;;;;;;;2.60;2.30;;;;;;;9.06;71.94;101403.03;5041483;28;20206;-71
2021/10/25 10:33:14;;;;;;;4.53;2.73;;;;;;;9.13;70.52;101395.16;5036416;28;20291;-72
2021/10/25 10:36:12;;;;;;;4.37;2.67;;;;;;;9.20;70.48;101389.94;5038469;28;20208;-71
2021/10/25 10:38:58;;;;;;;5.23;2.83;;;;;;;9.25;70.82;101390.75;5046192;28;20555;-72
2021/10/25 10:42:06;;;;;;;4.00;2.20;;;;;;;9.33;70.88;101379.41;5034107;28;20245;-72
2021/10/25 10:45:03;;;;;;;7.43;2.60;;;;;;;9.37;70.77;101378.50;5043882;28;20206;-71
2021/10/25 10:47:50;;;;;;;3.73;2.40;;;;;;;9.46;70.43;101376.69;5037605;28;20204;-72
2021/10/25 10:50:32;;;;;;;4.20;2.70;;;;;;;9.51;70.05;101381.84;5040733;28;20199;-72
2021/10/25 10:53:13;;;;;;;5.00;2.77;;;;;;;9.55;68.65;101390.47;5038287;28;20227;-71
2021/10/25 10:56:04;;;;;;;6.63;2.83;;;;;;;9.66;68.40;101384.28;5050485;28;20638;-70
2021/10/25 11:02:24;;;;;;;4.00;2.87;;;;;;;9.95;69.41;101374.44;5042848;28;20576;-72
2021/10/25 11:05:27;;;;;;;3.33;2.50;;;;;;;10.06;66.81;101383.00;5027023;28;20246;-72
2021/10/25 11:08:10;;;;;;;3.57;2.77;;;;;;;10.12;67.25;101384.66;5039962;28;20206;-71
2021/10/25 11:10:37;;;;;;;5.30;2.33;;;;;;;10.19;66.68;101391.53;5051791;28;20877;-72
2021/10/25 11:13:12;;;;;;;4.80;2.67;;;;;;;10.28;65.42;101383.59;5033289;28;20309;-71
2021/10/25 11:15:52;;;;;;;3.80;2.67;;;;;;;10.34;65.16;101382.66;5041404;28;20202;-72
2021/10/25 11:18:23;;;;;;;4.40;2.87;;;;;;;10.35;65.13;101379.19;5039931;28;20244;-72
2021/10/25 11:20:53;;;;;;;3.50;2.77;;;;;;;10.34;66.05;101385.28;5036260;28;20226;-72
2021/10/25 11:23:19;;;;;;;3.47;2.80;;;;;;;10.27;64.97;101378.38;5040199;28;20211;-71
2021/10/25 11:25:46;;;;;;;3.50;3.07;;;;;;;10.16;64.79;101381.97;5035531;28;20269;-72
2021/10/25 11:28:17;;;;;;;5.37;2.53;;;;;;;10.11;66.06;101368.16;5043150;28;20206;-72
2021/10/25 11:30:46;;;;;;;3.50;2.60;;;;;;;10.11;65.46;101362.09;5043918;28;20586;-72
2021/10/25 11:33:28;;;;;;;3.83;2.57;;;;;;;10.20;66.04;101361.97;5039662;28;20218;-72
2021/10/25 11:36:28;;;;;;;5.43;2.60;;;;;;;10.40;65.36;101353.94;5039392;28;20202;-72
2021/10/25 11:39:27;;;;;;;4.93;2.57;;;;;;;10.58;65.21;101350.19;5037456;28;20207;-72
2021/10/25 11:41:57;;;;;;;5.40;3.30;;;;;;;10.75;64.37;101348.19;5035997;28;20219;-71
2021/10/25 11:44:24;;;;;;;3.90;2.77;;;;;;;10.89;65.64;101347.97;5041484;28;20294;-71
2021/10/25 11:46:51;;;;;;;4.97;3.07;;;;;;;10.86;64.16;101349.78;5044752;28;20203;-71
2021/10/25 11:49:23;;;;;;;4.53;2.87;;;;;;;10.75;63.47;101345.59;5037885;28;20195;-71
2021/10/25 11:51:51;;;;;;;5.13;3.10;;;;;;;10.57;65.29;101356.28;5045945;28;20219;-71
2021/10/25 11:54:17;;;;;;;9.07;2.63;;;;;;;10.36;64.79;101345.28;5048340;28;20196;-71
2021/10/25 11:56:51;;;;;;;5.53;3.53;;;;;;;10.19;65.89;101348.06;5055159;28;20289;-71
2021/10/25 11:59:19;;;;;;;4.67;3.13;;;;;;;10.14;65.34;101346.41;5050447;28;20199;-71
2021/10/25 12:01:46;;;;;;;5.77;3.30;;;;;;;10.12;65.51;101349.03;5050409;28;20839;-71
2021/10/25 12:04:16;;;;;;;8.23;3.53;;;;;;;10.14;65.16;101344.66;5054946;28;20198;-71
2021/10/25 12:06:53;;;;;;;5.70;3.03;;;;;;;10.21;65.61;101337.63;5049334;28;20195;-71
2021/10/25 12:09:21;;;;;;;7.90;3.03;;;;;;;10.24;64.09;101338.44;5034936;28;20195;-71
2021/10/25 12:11:54;;;;;;;5.23;3.30;;;;;;;10.30;64.82;101339.25;5041981;28;20227;-71
2021/10/25 12:14:26;;;;;;;4.60;2.80;;;;;;;10.40;64.54;101333.91;5030653;28;20346;-71
2021/10/25 12:16:53;;;;;;;6.87;2.97;;;;;;;10.50;64.30;101329.44;5040800;28;20295;-71
2021/10/25 12:19:21;;;;;;;5.07;2.60;;;;;;;10.64;63.54;101330.97;5044946;28;20265;-71
2021/10/25 12:21:48;;;;;;;5.17;2.70;;;;;;;10.68;63.39;101328.31;5051348;28;20227;-71
2021/10/25 12:24:15;;;;;;;4.43;3.00;;;;;;;10.73;64.18;101320.41;5034492;28;20209;-71
2021/10/25 12:26:43;;;;;;;5.83;3.37;;;;;;;10.78;63.58;101326.41;5045497;28;20211;-71
2021/10/25 12:29:18;;;;;;;7.23;3.13;;;;;;;10.88;63.27;101327.13;5039035;28;20207;-71
2021/10/25 12:31:46;;;;;;;5.20;3.17;;;;;;;10.95;62.26;101329.59;5044692;28;20295;-71
2021/10/25 12:34:12;;;;;;;7.00;3.60;;;;;;;11.03;62.18;101328.59;5042341;28;20218;-71
2021/10/25 12:36:43;;;;;;;7.40;2.87;;;;;;;11.06;62.79;101324.19;5038711;28;20279;-71
2021/10/25 12:39:14;;;;;;;4.47;2.97;;;;;;;11.11;62.12;101316.31;5039387;28;20190;-71
2021/10/25 12:41:46;;;;;;;6.13;2.83;;;;;;;11.13;62.17;101318.00;5039845;28;20224;-71
2021/10/25 12:44:22;;;;;;;3.73;2.60;;;;;;;11.25;62.04;101314.31;5038045;28;20749;-72
2021/10/25 12:46:50;;;;;;;5.40;2.90;;;;;;;11.22;62.25;101303.06;5038857;28;20834;-72
2021/10/25 12:49:20;;;;;;;3.50;2.63;;;;;;;11.24;62.32;101299.56;5043924;28;20859;-71
2021/10/25 12:51:48;;;;;;;4.73;2.80;;;;;;;11.21;61.94;101302.22;5043899;28;20232;-71
2021/10/25 12:54:15;;;;;;;6.00;2.97;;;;;;;11.21;61.70;101286.53;5035293;28;20200;-71
2021/10/25 12:56:43;;;;;;;4.53;2.80;;;;;;;11.21;61.89;101280.47;5048336;28;20203;-71
2021/10/25 12:59:11;;;;;;;4.60;2.60;;;;;;;11.18;61.98;101270.94;5038009;28;20204;-71
2021/10/25 13:01:39;;;;;;;7.13;3.10;;;;;;;11.16;62.36;101260.53;5038615;28;20251;-71